Time;durP1;ratioP1;P1;durP2;ratioP2;P2;SDS_P1;SDS_P2;PMS_P1;PMS_P2;Temp;Humidity;BMP_temperature;BMP_pressure;BME280_temperature;BME280_humidity;BME280_pressure;Samples;Min_cycle;Max_cycle;Signal;HPM_P1;HPM_P2
2022/09/02 00:00:29;;;;;;;1.23;0.60;;;;;;;19.42;38.26;100847.41;462857;114;922947;-72
2022/09/02 00:01:36;;;;;;;1.19;0.54;;;;;;;19.41;38.27;100842.12;463113;114;922473;-72
2022/09/02 00:02:39;;;;;;;1.86;0.48;;;;;;;19.40;38.37;100844.09;462479;114;923038;-71
2022/09/02 00:03:43;;;;;;;1.70;0.66;;;;;;;19.39;38.63;100849.88;462963;114;922666;-72
2022/09/02 00:04:46;;;;;;;0.40;0.40;;;;;;;19.39;38.63;100849.88;463059;114;930120;-72
2022/09/02 00:05:49;;;;;;;0.74;0.53;;;;;;;19.37;38.61;100847.37;463143;114;923234;-71
2022/09/02 00:06:53;;;;;;;1.98;0.52;;;;;;;19.37;38.61;100847.37;463143;114;923079;-71
2022/09/02 00:07:56;;;;;;;1.64;0.66;;;;;;;19.37;38.66;100847.37;463013;114;923156;-71
2022/09/02 00:09:01;;;;;;;0.96;0.57;;;;;;;19.36;38.76;100847.63;462994;114;923562;-71
2022/09/02 00:10:04;;;;;;;1.45;0.51;;;;;;;19.34;38.79;100845.16;463008;114;923321;-71
2022/09/02 00:11:09;;;;;;;1.87;0.71;;;;;;;19.32;38.87;100847.34;463000;114;923012;-71
2022/09/02 00:12:13;;;;;;;1.10;0.74;;;;;;;19.32;38.84;100850.10;462794;114;930455;-70
2022/09/02 00:13:18;;;;;;;1.04;0.57;;;;;;;19.32;38.84;100846.50;463106;114;922996;-71
2022/09/02 00:14:25;;;;;;;0.96;0.65;;;;;;;19.32;38.80;100854.80;462830;114;922998;-71
2022/09/02 00:15:28;;;;;;;0.80;0.47;;;;;;;19.29;38.84;100847.05;462907;114;922452;-70
2022/09/02 00:16:32;;;;;;;0.87;0.71;;;;;;;19.29;38.84;100852.58;463018;114;922583;-71
2022/09/02 00:17:35;;;;;;;1.97;0.84;;;;;;;19.27;38.78;100860.30;463033;114;923095;-71
2022/09/02 00:18:40;;;;;;;0.77;0.59;;;;;;;19.25;38.76;100855.02;463047;112;922976;-71
2022/09/02 00:19:45;;;;;;;0.93;0.56;;;;;;;19.24;38.77;100855.31;462827;114;922981;-71
2022/09/02 00:20:48;;;;;;;1.23;0.81;;;;;;;19.21;38.68;100859.42;463123;114;922573;-71
2022/09/02 00:21:53;;;;;;;1.32;0.78;;;;;;;19.19;38.75;100861.61;463088;114;923060;-70
2022/09/02 00:22:56;;;;;;;1.70;0.81;;;;;;;19.16;38.83;100862.16;463015;114;923003;-71
2022/09/02 00:24:01;;;;;;;2.80;0.71;;;;;;;19.11;38.89;100856.59;462977;114;923015;-71
2022/09/02 00:25:05;;;;;;;1.33;0.69;;;;;;;19.07;39.05;100856.30;462875;114;930208;-71
2022/09/02 00:26:09;;;;;;;0.90;0.60;;;;;;;19.04;39.17;100859.56;463092;114;922490;-71
2022/09/02 00:27:12;;;;;;;1.25;0.78;;;;;;;19.02;39.30;100860.95;463046;114;922472;-71
2022/09/02 00:28:16;;;;;;;0.98;0.85;;;;;;;18.98;39.61;100857.02;469422;112;922635;-71
2022/09/02 00:29:23;;;;;;;2.32;0.91;;;;;;;18.92;39.90;100858.91;461653;115;923240;-71
2022/09/02 00:30:27;;;;;;;1.76;0.65;;;;;;;18.89;40.19;100856.68;454491;114;923055;-71
2022/09/02 00:31:32;;;;;;;2.94;0.80;;;;;;;18.86;40.42;100864.64;463072;114;930241;-71
2022/09/02 00:32:35;;;;;;;1.58;0.88;;;;;;;18.82;40.74;100860.75;462908;114;923037;-71
2022/09/02 00:33:39;;;;;;;0.97;0.80;;;;;;;18.77;40.97;100857.94;463857;112;923087;-71
2022/09/02 00:34:42;;;;;;;1.81;0.66;;;;;;;18.74;41.31;100860.12;471306;112;923023;-71
2022/09/02 00:35:45;;;;;;;1.14;0.76;;;;;;;18.72;41.65;100855.97;471398;112;922904;-71
2022/09/02 00:36:49;;;;;;;1.71;0.82;;;;;;;18.69;41.91;100868.36;471400;112;922498;-71
2022/09/02 00:37:52;;;;;;;1.57;0.86;;;;;;;18.65;42.02;100864.46;471375;112;922975;-72
2022/09/02 00:38:55;;;;;;;1.77;0.77;;;;;;;18.64;42.38;100856.42;471322;112;922771;-72
2022/09/02 00:39:58;;;;;;;0.74;0.68;;;;;;;18.62;42.52;100870.52;471416;112;923046;-71
2022/09/02 00:41:05;;;;;;;1.67;0.80;;;;;;;18.59;42.61;100862.74;471341;112;922516;-71
2022/09/02 00:42:09;;;;;;;0.76;0.75;;;;;;;18.56;42.71;100866.04;471123;112;922899;-71
2022/09/02 00:43:28;;;;;;;1.12;0.79;;;;;;;18.51;42.86;100863.19;471328;112;922951;-71
2022/09/02 00:44:32;;;;;;;1.29;0.67;;;;;;;18.50;43.09;100863.45;468121;112;923048;-71
2022/09/02 00:45:36;;;;;;;0.71;0.71;;;;;;;18.49;43.37;100865.37;471161;112;922613;-72
2022/09/02 00:46:40;;;;;;;1.47;0.86;;;;;;;18.49;43.48;100862.61;471203;112;922565;-71
2022/09/02 00:47:44;;;;;;;2.09;1.05;;;;;;;18.49;43.62;100864.53;471221;112;923041;-71
2022/09/02 00:49:13;;;;;;;1.38;0.88;;;;;;;18.49;43.61;100862.61;471256;112;922574;-72
2022/09/02 00:50:22;;;;;;;1.90;1.03;;;;;;;18.48;43.47;100866.45;461755;114;930230;-72
2022/09/02 00:51:29;;;;;;;1.51;0.97;;;;;;;18.43;43.61;100863.64;462905;112;923110;-72
2022/09/02 00:52:35;;;;;;;1.79;0.92;;;;;;;18.39;43.71;100861.67;471203;112;923111;-71
2022/09/02 00:53:41;;;;;;;1.34;1.01;;;;;;;18.37;43.97;100874.88;471139;112;922519;-71
2022/09/02 00:54:51;;;;;;;1.07;0.97;;;;;;;18.33;44.08;100874.58;471162;112;922995;-71
2022/09/02 00:55:54;;;;;;;1.34;0.91;;;;;;;18.31;44.27;100872.07;471103;112;922712;-72
2022/09/02 00:57:00;;;;;;;1.62;0.88;;;;;;;18.31;44.38;100877.59;471305;112;922613;-72
2022/09/02 00:58:11;;;;;;;1.23;1.02;;;;;;;18.32;44.61;100872.91;471186;112;924256;-72
2022/09/02 00:59:23;;;;;;;1.28;0.91;;;;;;;18.34;44.58;100879.02;470946;112;923095;-72
2022/09/02 01:00:32;;;;;;;1.54;0.92;;;;;;;18.35;44.70;100883.45;471064;112;930268;-72
2022/09/02 01:01:37;;;;;;;1.13;0.88;;;;;;;18.37;44.70;100880.41;471217;112;923069;-72
2022/09/02 01:02:41;;;;;;;0.84;0.82;;;;;;;18.37;44.68;100877.64;461921;114;923150;-72
2022/09/02 01:03:44;;;;;;;1.52;1.00;;;;;;;18.37;44.66;100881.25;462325;112;923167;-71
2022/09/02 01:04:47;;;;;;;1.16;0.92;;;;;;;18.39;44.76;100876.31;471241;112;930755;-72
2022/09/02 01:05:51;;;;;;;1.22;0.89;;;;;;;18.40;44.69;100877.98;471273;112;922967;-72
2022/09/02 01:06:54;;;;;;;1.14;0.96;;;;;;;18.40;44.72;100880.75;471212;112;923015;-71
2022/09/02 01:07:58;;;;;;;1.81;1.06;;;;;;;18.41;44.72;100876.89;471382;112;922440;-71
2022/09/02 01:09:07;;;;;;;1.30;1.19;;;;;;;18.44;45.07;100886.57;471264;112;922887;-71
2022/09/02 01:10:17;;;;;;;1.71;1.13;;;;;;;18.44;45.07;100886.57;471166;112;922879;-72
2022/09/02 01:11:21;;;;;;;1.86;1.19;;;;;;;18.43;44.83;100890.42;471428;112;922646;-72
2022/09/02 01:12:26;;;;;;;1.65;1.08;;;;;;;18.41;44.81;100890.70;471317;112;922644;-72
2022/09/02 01:13:31;;;;;;;1.44;1.21;;;;;;;18.39;44.64;100887.35;471197;112;922509;-72
2022/09/02 01:14:34;;;;;;;3.45;1.16;;;;;;;18.36;44.64;100890.61;471164;112;922580;-72
2022/09/02 01:15:43;;;;;;;1.93;1.27;;;;;;;18.34;44.77;100895.58;462485;114;922640;-72
2022/09/02 01:16:50;;;;;;;1.27;0.92;;;;;;;18.33;44.90;100889.22;454575;114;930648;-72
2022/09/02 01:17:53;;;;;;;1.61;1.29;;;;;;;18.33;44.98;100889.22;454189;116;922546;-70
2022/09/02 01:19:00;;;;;;;1.64;0.93;;;;;;;18.32;45.07;100889.47;454398;116;922923;-70
2022/09/02 01:20:10;;;;;;;1.19;0.88;;;;;;;18.31;45.15;100898.84;454195;116;922794;-71
2022/09/02 01:21:13;;;;;;;;;;;;;;;18.28;45.13;100894.69;458006;116;922084;-71
2022/09/02 01:22:25;;;;;;;2.46;0.91;;;;;;;18.24;45.16;100895.47;454434;116;922537;-71
2022/09/02 01:23:30;;;;;;;1.21;0.88;;;;;;;18.18;45.34;100890.97;454214;116;922949;-71
2022/09/02 01:24:37;;;;;;;1.52;0.97;;;;;;;18.13;45.53;100896.43;453692;116;922478;-71
2022/09/02 01:25:40;;;;;;;1.12;0.73;;;;;;;18.10;45.72;100903.28;463090;114;923111;-71
2022/09/02 01:26:44;;;;;;;2.18;0.90;;;;;;;18.09;45.95;100898.02;463190;114;923071;-71
2022/09/02 01:27:48;;;;;;;1.99;0.91;;;;;;;18.08;45.96;100893.61;463085;114;922530;-71
2022/09/02 01:28:51;;;;;;;2.83;0.85;;;;;;;18.07;46.21;100898.29;463098;114;922555;-71
2022/09/02 01:29:57;;;;;;;2.17;1.16;;;;;;;18.04;46.23;100893.27;463061;114;923051;-71
2022/09/02 01:31:00;;;;;;;1.47;1.15;;;;;;;18.01;46.37;100888.28;463009;114;930436;-71
2022/09/02 01:32:04;;;;;;;1.37;0.82;;;;;;;18.01;46.54;100898.48;463086;114;923308;-71
2022/09/02 01:33:08;;;;;;;1.39;0.94;;;;;;;18.01;46.65;100898.48;462988;114;930196;-71
2022/09/02 01:34:11;;;;;;;1.22;1.11;;;;;;;18.02;46.71;100902.91;468177;112;922464;-71
2022/09/02 01:35:15;;;;;;;1.91;1.10;;;;;;;18.02;46.77;100902.91;471402;112;922492;-71
2022/09/02 01:36:19;;;;;;;1.18;0.98;;;;;;;18.04;46.80;100901.55;471250;112;922962;-71
2022/09/02 01:37:23;;;;;;;2.09;1.11;;;;;;;18.06;46.87;100906.81;471449;112;922994;-71
2022/09/02 01:38:26;;;;;;;1.07;0.85;;;;;;;18.07;46.73;100905.73;471323;112;922962;-72
2022/09/02 01:39:29;;;;;;;0.93;0.88;;;;;;;18.08;46.70;100910.17;470340;112;930147;-71
2022/09/02 01:40:34;;;;;;;1.38;0.87;;;;;;;18.08;46.72;100911.00;466057;114;922513;-71
2022/09/02 01:41:37;;;;;;;7.66;1.38;;;;;;;18.09;46.70;100914.57;466019;114;922980;-71
2022/09/02 01:42:41;;;;;;;1.22;0.94;;;;;;;18.06;46.74;100915.09;466163;114;922513;-72
2022/09/02 01:43:44;;;;;;;1.67;0.95;;;;;;;18.03;46.74;100907.34;466050;114;923100;-71
2022/09/02 01:44:47;;;;;;;1.22;0.89;;;;;;;17.98;46.53;100921.05;466133;114;923166;-71
2022/09/02 01:45:53;;;;;;;1.61;0.84;;;;;;;17.98;46.53;100921.05;466127;114;922480;-71
2022/09/02 01:46:57;;;;;;;1.52;0.95;;;;;;;17.96;46.98;100928.77;457685;116;922691;-71
2022/09/02 01:48:01;;;;;;;1.47;1.17;;;;;;;17.93;47.05;100925.41;458154;114;922697;-71
2022/09/02 01:49:04;;;;;;;1.23;1.01;;;;;;;17.92;47.04;100929.25;466038;114;922820;-71
2022/09/02 01:50:08;;;;;;;1.66;1.01;;;;;;;17.89;47.14;100927.02;466045;114;923053;-70
2022/09/02 01:51:15;;;;;;;1.62;1.01;;;;;;;17.88;47.32;100932.78;466061;114;922460;-71
2022/09/02 01:52:21;;;;;;;1.32;1.07;;;;;;;17.87;47.38;100928.34;465972;114;922509;-72
2022/09/02 01:53:24;;;;;;;1.37;0.89;;;;;;;17.85;47.50;100933.30;465925;114;922895;-71
2022/09/02 01:54:27;;;;;;;2.19;1.12;;;;;;;17.82;47.66;100933.80;466011;114;922961;-72
2022/09/02 01:55:32;;;;;;;1.94;0.79;;;;;;;17.77;47.90;100931.80;466143;114;922931;-72
2022/09/02 01:56:35;;;;;;;1.96;0.82;;;;;;;17.71;48.06;100932.81;465931;114;923400;-71
2022/09/02 01:57:39;;;;;;;1.46;1.36;;;;;;;17.65;48.17;100930.23;466105;114;923083;-72
2022/09/02 01:58:42;;;;;;;1.36;0.80;;;;;;;17.61;48.16;100937.34;464737;114;922905;-71
2022/09/02 01:59:46;;;;;;;1.25;0.93;;;;;;;17.57;48.34;100936.16;463698;114;922884;-71
2022/09/02 02:00:50;;;;;;;1.54;1.15;;;;;;;17.54;48.42;100937.48;463559;114;923273;-71
2022/09/02 02:01:54;;;;;;;2.89;1.15;;;;;;;17.51;48.49;100932.48;463538;114;930274;-71
2022/09/02 02:02:57;;;;;;;4.83;1.18;;;;;;;17.47;48.56;100934.92;463683;114;922753;-71
2022/09/02 02:04:02;;;;;;;1.26;0.84;;;;;;;17.43;48.52;100936.48;463623;114;922945;-71
2022/09/02 02:05:07;;;;;;;1.58;0.98;;;;;;;17.41;48.16;100937.84;463564;114;923074;-71
2022/09/02 02:06:15;;;;;;;2.79;0.96;;;;;;;17.38;48.04;100933.66;452470;117;922589;-71
2022/09/02 02:07:21;;;;;;;2.52;1.07;;;;;;;17.37;48.09;100931.14;453571;114;923084;-71
2022/09/02 02:08:25;;;;;;;2.58;1.06;;;;;;;17.37;48.08;100937.48;463438;114;923057;-71
2022/09/02 02:09:28;;;;;;;1.47;0.81;;;;;;;17.36;47.77;100935.00;463694;114;923251;-71
2022/09/02 02:10:32;;;;;;;1.63;1.11;;;;;;;17.36;47.48;100932.25;452446;117;922640;-71
2022/09/02 02:11:35;;;;;;;1.03;0.87;;;;;;;17.34;47.20;100932.48;453015;114;923328;-71
2022/09/02 02:12:39;;;;;;;1.19;1.07;;;;;;;17.33;46.97;100935.48;463667;114;922926;-71
2022/09/02 02:13:42;;;;;;;4.05;1.14;;;;;;;17.33;46.82;100935.48;463581;114;923959;-71
2022/09/02 02:14:46;;;;;;;1.71;0.96;;;;;;;17.31;46.63;100937.68;463616;114;922691;-71
2022/09/02 02:15:49;;;;;;;2.22;0.86;;;;;;;17.30;46.53;100936.00;463635;114;923064;-71
2022/09/02 02:16:53;;;;;;;2.31;0.90;;;;;;;17.29;46.47;100940.68;463611;114;922547;-72
2022/09/02 02:17:56;;;;;;;2.37;0.86;;;;;;;17.29;46.32;100943.44;463712;114;922993;-71
2022/09/02 02:18:59;;;;;;;1.09;0.87;;;;;;;17.29;46.19;100940.68;463724;114;922958;-71
2022/09/02 02:20:04;;;;;;;0.91;0.86;;;;;;;17.31;46.16;100948.70;463688;114;923141;-71
2022/09/02 02:21:07;;;;;;;1.93;1.05;;;;;;;17.31;45.99;100948.70;463647;114;922597;-71
2022/09/02 02:22:10;;;;;;;1.48;1.09;;;;;;;17.30;45.85;100953.38;463715;114;923058;-71
2022/09/02 02:23:13;;;;;;;1.27;0.83;;;;;;;17.30;45.76;100947.03;463655;114;923114;-71
2022/09/02 02:24:17;;;;;;;1.27;0.84;;;;;;;17.29;45.60;100953.62;463666;114;930231;-71
2022/09/02 02:25:20;;;;;;;3.86;1.29;;;;;;;17.29;45.64;100948.11;463634;114;922607;-71
2022/09/02 02:26:25;;;;;;;1.23;1.10;;;;;;;17.28;45.68;100958.30;463524;114;923072;-71
2022/09/02 02:27:28;;;;;;;2.03;1.14;;;;;;;17.30;45.75;100952.54;463661;114;923000;-71
2022/09/02 02:28:34;;;;;;;1.38;1.08;;;;;;;17.32;45.79;100956.70;463468;114;922507;-71
2022/09/02 02:29:39;;;;;;;1.80;1.12;;;;;;;17.36;45.94;100957.89;462025;114;922495;-71
2022/09/02 02:30:42;;;;;;;1.36;1.17;;;;;;;17.39;45.94;100957.38;455833;114;922478;-71
2022/09/02 02:31:46;;;;;;;3.69;1.14;;;;;;;17.41;45.88;100955.22;463677;114;922415;-71
2022/09/02 02:32:49;;;;;;;1.37;0.99;;;;;;;17.45;45.76;100958.30;463620;114;923367;-71
2022/09/02 02:33:53;;;;;;;1.68;0.98;;;;;;;17.46;45.74;100957.22;464272;114;930261;-71
2022/09/02 02:34:56;;;;;;;1.44;0.93;;;;;;;17.48;45.64;100961.38;466096;114;923037;-71
2022/09/02 02:36:03;;;;;;;1.31;1.16;;;;;;;17.49;45.68;100956.70;466029;114;922507;-72
2022/09/02 02:37:06;;;;;;;1.42;0.98;;;;;;;17.51;45.71;100965.57;465879;114;923071;-71
2022/09/02 02:38:09;;;;;;;1.47;1.01;;;;;;;17.53;45.68;100960.65;466078;114;922897;-71
2022/09/02 02:39:15;;;;;;;2.03;0.99;;;;;;;17.54;45.52;100959.53;465683;114;923029;-71
2022/09/02 02:40:21;;;;;;;1.06;0.99;;;;;;;17.52;45.51;100964.48;468799;112;922960;-71
2022/09/02 02:41:25;;;;;;;1.28;1.07;;;;;;;17.49;45.49;100963.05;471265;112;922587;-71
2022/09/02 02:42:28;;;;;;;1.49;1.15;;;;;;;17.46;45.57;100969.08;471345;112;923225;-71
2022/09/02 02:43:33;;;;;;;1.86;1.06;;;;;;;17.43;45.77;100965.97;471355;112;922946;-71
2022/09/02 02:44:38;;;;;;;5.79;1.47;;;;;;;17.38;45.87;100961.22;471184;112;922561;-71
2022/09/02 02:45:41;;;;;;;4.32;1.22;;;;;;;17.36;45.90;100970.84;471105;112;922501;-72
2022/09/02 02:46:44;;;;;;;1.26;0.94;;;;;;;17.31;46.09;100971.56;471341;112;923092;-72
2022/09/02 02:47:48;;;;;;;2.61;1.14;;;;;;;17.29;46.21;100971.00;471233;112;922999;-71
2022/09/02 02:48:53;;;;;;;3.24;1.32;;;;;;;17.26;46.26;100978.91;471014;112;930182;-72
2022/09/02 02:49:56;;;;;;;2.04;1.07;;;;;;;17.21;46.39;100976.91;471144;112;922500;-71
2022/09/02 02:50:59;;;;;;;1.69;1.15;;;;;;;17.18;46.73;100988.44;471305;112;922986;-71
2022/09/02 02:52:03;;;;;;;3.47;1.71;;;;;;;17.14;47.01;100983.67;471303;112;923517;-71
2022/09/02 02:53:06;;;;;;;1.57;1.21;;;;;;;17.12;47.17;100991.34;471234;112;923054;-71
2022/09/02 02:54:13;;;;;;;2.24;1.19;;;;;;;17.07;47.21;100984.66;471221;112;930327;-71
2022/09/02 02:55:16;;;;;;;2.87;1.25;;;;;;;17.03;47.18;100985.41;471077;112;922590;-71
2022/09/02 02:56:19;;;;;;;1.61;1.25;;;;;;;16.99;47.29;100989.72;471264;112;923014;-71
2022/09/02 02:57:22;;;;;;;1.76;1.22;;;;;;;16.94;47.41;100990.47;471374;112;923059;-72
2022/09/02 02:58:26;;;;;;;3.76;1.52;;;;;;;16.92;47.55;100991.81;468942;112;922876;-72
2022/09/02 02:59:29;;;;;;;1.59;1.38;;;;;;;16.86;47.75;100996.39;462999;114;930249;-71
2022/09/02 03:00:33;;;;;;;3.56;1.30;;;;;;;16.86;47.75;100996.39;462945;114;922493;-72
2022/09/02 03:01:38;;;;;;;2.34;1.48;;;;;;;16.85;47.94;100991.12;462777;114;930164;-71
2022/09/02 03:02:41;;;;;;;1.31;1.12;;;;;;;16.85;47.83;100996.63;463050;114;922514;-72
2022/09/02 03:03:44;;;;;;;2.37;1.45;;;;;;;16.85;47.83;101002.13;462968;114;922597;-72
2022/09/02 03:04:49;;;;;;;5.49;1.71;;;;;;;16.83;47.83;101005.12;462952;114;922991;-72
2022/09/02 03:05:53;;;;;;;3.10;1.74;;;;;;;16.82;47.98;101006.20;462816;114;923016;-72
2022/09/02 03:06:57;;;;;;;1.69;1.22;;;;;;;16.79;48.09;101005.87;462854;114;930448;-71
2022/09/02 03:08:02;;;;;;;3.12;1.66;;;;;;;16.76;48.32;101003.62;462938;114;930126;-71
2022/09/02 03:09:06;;;;;;;4.84;1.87;;;;;;;16.75;48.46;101004.70;450634;117;923043;-71
2022/09/02 03:10:12;;;;;;;2.19;1.31;;;;;;;16.73;48.63;101002.18;451605;114;923215;-70
2022/09/02 03:11:16;;;;;;;4.18;1.62;;;;;;;16.74;48.84;101005.77;462804;114;930211;-72
2022/09/02 03:12:20;;;;;;;1.76;1.52;;;;;;;16.76;48.87;101007.18;463013;114;922563;-71
2022/09/02 03:13:24;;;;;;;7.40;2.02;;;;;;;16.76;48.80;101006.37;463005;114;922852;-72
2022/09/02 03:14:27;;;;;;;2.81;1.64;;;;;;;16.75;48.81;101015.70;462969;114;922583;-72
2022/09/02 03:15:30;;;;;;;2.27;1.86;;;;;;;16.73;48.90;101015.11;463063;114;923134;-71
2022/09/02 03:16:35;;;;;;;2.39;1.97;;;;;;;16.72;48.97;101014.27;465556;112;922533;-72
2022/09/02 03:17:38;;;;;;;2.32;1.59;;;;;;;16.72;49.09;101027.20;471323;112;923011;-71
2022/09/02 03:18:41;;;;;;;2.79;2.02;;;;;;;16.71;49.11;101025.52;471380;112;923266;-71
2022/09/02 03:19:45;;;;;;;1.88;1.66;;;;;;;16.70;49.03;101023.87;471250;112;922985;-71
2022/09/02 03:20:48;;;;;;;2.21;1.74;;;;;;;16.68;48.88;101027.70;471270;112;923099;-72
2022/09/02 03:21:52;;;;;;;2.72;1.62;;;;;;;16.66;48.95;101031.77;471375;112;922491;-71
2022/09/02 03:22:57;;;;;;;2.86;2.01;;;;;;;16.65;49.07;101025.42;471261;112;922486;-71
2022/09/02 03:24:01;;;;;;;3.09;2.08;;;;;;;16.67;49.13;101041.70;471094;112;922488;-72
2022/09/02 03:25:09;;;;;;;3.42;2.05;;;;;;;16.66;49.08;101040.86;471372;112;922416;-71
2022/09/02 03:26:16;;;;;;;3.61;1.91;;;;;;;16.67;49.12;101038.95;471162;112;922934;-71
2022/09/02 03:27:22;;;;;;;3.53;1.87;;;;;;;16.68;49.13;101044.22;471205;112;922824;-72
2022/09/02 03:28:25;;;;;;;3.22;1.79;;;;;;;16.67;49.11;101042.55;471277;112;922521;-71
2022/09/02 03:29:29;;;;;;;2.67;1.88;;;;;;;16.67;49.18;101044.45;470973;112;923057;-72
2022/09/02 03:30:33;;;;;;;3.53;2.11;;;;;;;16.69;49.25;101047.81;462959;114;927214;-72
2022/09/02 03:31:36;;;;;;;3.11;2.18;;;;;;;16.70;49.21;101046.73;463041;114;922955;-72
2022/09/02 03:32:40;;;;;;;2.96;2.01;;;;;;;16.71;49.19;101048.38;463012;114;930386;-72
2022/09/02 03:33:43;;;;;;;2.99;2.17;;;;;;;16.72;49.08;101057.48;464360;112;923754;-70
2022/09/02 03:34:46;;;;;;;2.67;1.84;;;;;;;16.71;48.93;101053.05;471395;112;922544;-70
2022/09/02 03:35:49;;;;;;;3.88;2.14;;;;;;;16.68;48.97;101060.74;471278;112;923089;-70
2022/09/02 03:36:52;;;;;;;2.94;2.01;;;;;;;16.69;49.05;101061.58;471348;112;922547;-71
2022/09/02 03:37:55;;;;;;;2.97;1.96;;;;;;;16.70;49.22;101070.69;471295;112;922612;-72
2022/09/02 03:39:00;;;;;;;3.47;1.93;;;;;;;16.70;49.21;101055.00;471199;112;923029;-72
2022/09/02 03:40:10;;;;;;;2.60;2.13;;;;;;;16.71;49.15;101062.16;460543;114;922682;-72
2022/09/02 03:41:13;;;;;;;5.39;2.46;;;;;;;16.73;49.02;101072.94;461772;112;923251;-71
2022/09/02 03:42:16;;;;;;;4.34;2.49;;;;;;;16.73;49.01;101070.18;471292;112;923467;-71
2022/09/02 03:43:21;;;;;;;5.03;2.81;;;;;;;16.75;49.10;101073.54;471089;112;922497;-72
2022/09/02 03:44:25;;;;;;;6.69;2.24;;;;;;;16.77;49.00;101068.60;471230;112;922932;-71
2022/09/02 03:45:28;;;;;;;10.41;2.67;;;;;;;16.76;48.90;101059.50;471139;112;930536;-71
2022/09/02 03:46:34;;;;;;;4.52;2.68;;;;;;;16.76;48.86;101067.77;471045;112;930803;-72
2022/09/02 03:47:42;;;;;;;4.75;2.59;;;;;;;16.76;48.84;101072.47;471216;112;922452;-71
2022/09/02 03:48:43;;;;;;;4.23;2.41;;;;;;;16.72;48.90;101077.60;470644;112;922539;-72
2022/09/02 03:49:47;;;;;;;3.54;2.30;;;;;;;16.71;48.92;101070.41;471142;112;922505;-72
2022/09/02 03:50:50;;;;;;;8.43;2.44;;;;;;;16.69;48.98;101078.10;471311;112;922697;-72
2022/09/02 03:51:55;;;;;;;8.21;2.52;;;;;;;16.69;49.09;101078.10;471202;112;922815;-72
2022/09/02 03:52:59;;;;;;;5.01;2.28;;;;;;;16.69;49.25;101078.10;471246;112;922879;-72
2022/09/02 03:54:02;;;;;;;3.34;2.11;;;;;;;16.73;49.40;101075.69;471135;112;928895;-72
2022/09/02 03:55:06;;;;;;;4.51;2.45;;;;;;;16.76;49.43;101077.97;471202;112;922809;-72
2022/09/02 03:56:14;;;;;;;5.52;2.28;;;;;;;16.80;49.49;101081.91;471118;112;923022;-72
2022/09/02 03:57:19;;;;;;;3.59;2.09;;;;;;;16.82;49.57;101079.72;471049;112;930514;-72
2022/09/02 03:58:22;;;;;;;3.32;2.37;;;;;;;16.86;49.56;101087.28;469208;112;923501;-70
2022/09/02 03:59:26;;;;;;;5.99;2.31;;;;;;;16.88;49.45;101085.09;462824;114;922609;-70
2022/09/02 04:00:32;;;;;;;3.14;2.25;;;;;;;16.90;49.36;101074.69;462864;114;930517;-70
2022/09/02 04:01:37;;;;;;;3.32;2.06;;;;;;;16.92;49.23;101088.22;462812;114;922992;-70
2022/09/02 04:02:40;;;;;;;3.75;2.74;;;;;;;16.92;49.16;101083.55;463015;114;922461;-72
2022/09/02 04:03:45;;;;;;;3.71;2.58;;;;;;;16.93;48.98;101084.36;450789;117;923124;-72
2022/09/02 04:04:48;;;;;;;3.42;2.24;;;;;;;16.92;48.96;101083.55;451297;114;922546;-72
2022/09/02 04:05:51;;;;;;;4.42;2.74;;;;;;;16.93;48.99;101078.85;462956;114;930623;-71
2022/09/02 04:06:57;;;;;;;2.92;2.43;;;;;;;16.93;49.00;101085.20;462939;114;923055;-71
2022/09/02 04:08:01;;;;;;;4.78;2.47;;;;;;;16.95;49.12;101082.20;462921;114;922612;-71
2022/09/02 04:09:05;;;;;;;4.39;2.62;;;;;;;16.97;49.14;101094.67;462939;114;922428;-71
2022/09/02 04:10:10;;;;;;;3.92;2.45;;;;;;;16.99;49.15;101086.98;462971;114;922505;-71
2022/09/02 04:11:16;;;;;;;3.52;2.47;;;;;;;17.02;49.13;101088.42;462928;114;922673;-71
2022/09/02 04:12:20;;;;;;;3.83;2.56;;;;;;;17.05;49.07;101082.41;462910;114;923525;-70
2022/09/02 04:13:25;;;;;;;5.82;2.67;;;;;;;17.07;49.08;101092.12;462825;114;922589;-71
2022/09/02 04:14:28;;;;;;;5.72;2.68;;;;;;;17.10;49.03;101091.61;463038;114;922539;-71
2022/09/02 04:15:31;;;;;;;3.41;2.73;;;;;;;17.14;48.94;101088.38;466839;112;923064;-71
2022/09/02 04:16:34;;;;;;;2.91;2.64;;;;;;;17.16;48.80;101091.71;471374;112;922577;-71
2022/09/02 04:17:41;;;;;;;3.71;2.72;;;;;;;17.17;48.74;101096.14;470994;112;923008;-71
2022/09/02 04:18:45;;;;;;;5.87;2.82;;;;;;;17.19;48.69;101091.23;471065;112;923117;-71
2022/09/02 04:19:48;;;;;;;4.94;2.91;;;;;;;17.20;48.66;101092.92;471293;112;922570;-71
2022/09/02 04:20:52;;;;;;;5.35;2.81;;;;;;;17.22;48.66;101088.81;471215;112;922528;-71
2022/09/02 04:21:55;;;;;;;6.14;2.89;;;;;;;17.25;48.66;101095.77;471294;112;923285;-71
2022/09/02 04:22:59;;;;;;;4.82;2.76;;;;;;;17.27;48.70;101097.17;471208;112;923017;-71
2022/09/02 04:24:04;;;;;;;4.41;3.24;;;;;;;17.29;48.62;101096.94;471276;112;925644;-71
2022/09/02 04:25:08;;;;;;;3.16;2.64;;;;;;;17.30;48.58;101093.95;470842;112;922569;-71
2022/09/02 04:26:15;;;;;;;3.22;2.81;;;;;;;17.32;48.53;101096.43;471175;112;923198;-71
2022/09/02 04:27:18;;;;;;;3.70;2.53;;;;;;;17.35;48.57;101105.06;471154;112;922537;-71
2022/09/02 04:28:22;;;;;;;3.92;2.59;;;;;;;17.37;48.66;101099.28;471338;112;922456;-72
2022/09/02 04:29:25;;;;;;;5.39;2.09;;;;;;;17.39;48.52;101095.20;471259;112;923030;-71
2022/09/02 04:30:29;;;;;;;4.70;2.69;;;;;;;17.42;48.56;101094.70;462994;114;923503;-71
2022/09/02 04:31:32;;;;;;;3.15;2.38;;;;;;;17.44;48.49;101098.05;461445;114;923222;-71
2022/09/02 04:32:36;;;;;;;3.77;2.61;;;;;;;17.46;48.57;101101.41;462228;112;922538;-71
2022/09/02 04:33:43;;;;;;;4.94;2.74;;;;;;;17.49;48.40;101097.31;469769;112;930552;-72
2022/09/02 04:34:48;;;;;;;4.31;2.78;;;;;;;17.49;48.42;101100.91;461591;115;923051;-72
2022/09/02 04:35:53;;;;;;;5.67;3.06;;;;;;;17.51;48.45;101101.50;461731;114;923493;-69
2022/09/02 04:36:57;;;;;;;3.96;2.71;;;;;;;17.55;48.50;101110.11;462912;114;922576;-71
2022/09/02 04:38:01;;;;;;;2.77;2.49;;;;;;;17.59;48.07;101097.48;462993;114;923159;-70
2022/09/02 04:39:07;;;;;;;4.45;2.42;;;;;;;17.59;48.07;101097.48;461594;115;923092;-71
2022/09/02 04:40:11;;;;;;;4.06;3.11;;;;;;;17.60;48.20;101106.63;461680;114;930552;-71
2022/09/02 04:41:17;;;;;;;4.14;2.98;;;;;;;17.59;47.99;101105.77;462862;114;922518;-71
2022/09/02 04:42:21;;;;;;;3.03;2.68;;;;;;;17.59;47.88;101113.23;462230;114;922479;-71
2022/09/02 04:43:24;;;;;;;7.34;3.03;;;;;;;17.57;47.96;101113.47;462908;114;922724;-71
2022/09/02 04:44:28;;;;;;;4.08;2.49;;;;;;;17.57;48.03;101109.87;463016;114;922732;-71
2022/09/02 04:45:31;;;;;;;6.32;2.49;;;;;;;17.57;47.99;101107.95;462900;114;922826;-71
2022/09/02 04:46:35;;;;;;;3.21;2.75;;;;;;;17.57;47.93;101101.59;463050;114;922649;-71
2022/09/02 04:47:40;;;;;;;4.35;2.56;;;;;;;17.56;47.91;101106.27;462805;114;923038;-71
2022/09/02 04:48:44;;;;;;;3.56;2.29;;;;;;;17.55;47.83;101110.11;463026;114;922627;-72
2022/09/02 04:49:50;;;;;;;7.77;3.54;;;;;;;17.55;47.95;101110.11;462842;114;922563;-71
2022/09/02 04:50:53;;;;;;;9.88;3.38;;;;;;;17.55;47.94;101112.86;462844;114;922549;-71
2022/09/02 04:51:57;;;;;;;8.56;3.34;;;;;;;17.55;48.01;101109.27;463075;114;922483;-71
2022/09/02 04:53:00;;;;;;;4.73;3.45;;;;;;;17.56;48.03;101117.30;462986;114;922969;-71
2022/09/02 04:54:05;;;;;;;3.59;2.42;;;;;;;17.58;48.05;101114.30;462991;114;922577;-71
2022/09/02 04:55:09;;;;;;;5.22;2.89;;;;;;;17.60;48.02;101118.50;462981;114;922992;-71
2022/09/02 04:56:17;;;;;;;6.91;2.74;;;;;;;17.63;47.94;101122.70;461701;114;923256;-70